createdAt,value
2023-01-20T00:01:46.547Z,10.63
2023-01-20T00:04:19.059Z,11.43
2023-01-20T00:06:47.797Z,9.63
2023-01-20T00:09:18.656Z,8.03
2023-01-20T00:11:47.349Z,11.93
2023-01-20T00:14:15.893Z,10.50
2023-01-20T00:16:44.094Z,10.20
2023-01-20T00:19:15.675Z,10.07
2023-01-20T00:21:44.591Z,10.53
2023-01-20T00:24:12.825Z,11.07
2023-01-20T00:26:41.132Z,11.57
2023-01-20T00:29:10.534Z,10.83
2023-01-20T00:31:38.998Z,10.77
2023-01-20T00:34:07.172Z,11.57
2023-01-20T00:36:36.800Z,10.60
2023-01-20T00:39:05.890Z,10.33
2023-01-20T00:41:34.177Z,11.30
2023-01-20T00:44:02.290Z,8.73
2023-01-20T00:46:30.438Z,10.40
2023-01-20T00:48:58.698Z,9.67
2023-01-20T00:51:26.789Z,9.63
2023-01-20T00:53:56.302Z,13.43
2023-01-20T00:56:24.415Z,8.83
2023-01-20T00:58:55.049Z,13.10
2023-01-20T01:01:23.724Z,8.57
2023-01-20T01:03:55.028Z,8.53
2023-01-20T01:06:23.672Z,11.87
2023-01-20T01:08:52.601Z,9.23
2023-01-20T01:11:22.104Z,10.33
2023-01-20T01:13:50.221Z,9.33
2023-01-20T01:16:18.351Z,9.33
2023-01-20T01:18:46.516Z,11.67
2023-01-20T01:21:18.042Z,10.20
2023-01-20T01:23:47.262Z,13.43
2023-01-20T01:26:15.771Z,11.80
2023-01-20T01:28:47.972Z,9.23
2023-01-20T01:31:18.892Z,9.70
2023-01-20T01:33:47.092Z,10.43
2023-01-20T01:36:18.263Z,10.93
2023-01-20T01:38:58.196Z,11.27
2023-01-20T01:41:27.774Z,11.33
2023-01-20T01:44:08.970Z,12.87
2023-01-20T01:46:37.523Z,9.73
2023-01-20T01:49:13.972Z,11.60
2023-01-20T01:51:48.599Z,12.20
2023-01-20T01:54:22.675Z,11.20
2023-01-20T01:56:52.767Z,10.90
2023-01-20T01:59:22.843Z,9.70
2023-01-20T02:01:53.664Z,11.10
2023-01-20T02:04:25.167Z,9.23
2023-01-20T02:07:01.381Z,12.33
2023-01-20T02:09:31.243Z,10.13
2023-01-20T02:12:03.523Z,12.10
2023-01-20T02:14:37.051Z,11.50
2023-01-20T02:17:19.750Z,14.00
2023-01-20T02:20:27.845Z,12.67
2023-01-20T02:23:08.042Z,13.37
2023-01-20T02:26:08.184Z,11.03
2023-01-20T02:29:29.980Z,12.70
2023-01-20T02:32:29.751Z,12.67
2023-01-20T02:35:04.012Z,11.60
2023-01-20T02:37:44.739Z,11.60
2023-01-20T02:40:29.033Z,13.80
2023-01-20T02:43:08.221Z,12.80
2023-01-20T02:45:44.548Z,11.90
2023-01-20T02:48:25.159Z,11.37
2023-01-20T02:51:02.014Z,11.60
2023-01-20T02:53:38.413Z,13.17
2023-01-20T02:56:08.749Z,12.87
2023-01-20T02:58:44.092Z,13.60
2023-01-20T03:01:20.499Z,13.33
2023-01-20T03:03:58.292Z,13.40
2023-01-20T03:06:33.249Z,13.17
2023-01-20T03:09:08.085Z,13.77
2023-01-20T03:11:42.587Z,12.83
2023-01-20T03:14:14.790Z,13.07
2023-01-20T03:16:43.558Z,15.37
2023-01-20T03:19:13.270Z,14.93
2023-01-20T03:21:41.732Z,13.17
2023-01-20T03:24:10.297Z,14.83
2023-01-20T03:26:39.589Z,14.97
2023-01-20T03:29:11.301Z,14.53
2023-01-20T03:31:44.029Z,15.03
2023-01-20T03:34:21.442Z,15.20
2023-01-20T03:36:50.606Z,13.13
2023-01-20T03:39:20.108Z,15.17
2023-01-20T03:41:59.731Z,13.87
2023-01-20T03:44:47.705Z,13.30
2023-01-20T03:47:28.322Z,14.60
2023-01-20T03:50:09.407Z,13.00
2023-01-20T03:52:47.250Z,14.23
2023-01-20T03:55:23.983Z,14.30
2023-01-20T03:58:03.303Z,13.60
2023-01-20T04:00:36.516Z,17.27
2023-01-20T04:03:10.620Z,13.60
2023-01-20T04:05:41.980Z,13.00
2023-01-20T04:08:13.398Z,12.27
2023-01-20T04:10:46.833Z,13.03
2023-01-20T04:13:16.132Z,12.87
2023-01-20T04:15:46.858Z,14.07
2023-01-20T04:18:19.323Z,16.10
2023-01-20T04:20:54.070Z,18.10
2023-01-20T04:23:29.179Z,15.63
2023-01-20T04:25:57.287Z,18.23
2023-01-20T04:28:26.001Z,17.17
2023-01-20T04:30:54.335Z,17.43
2023-01-20T04:33:22.540Z,20.23
2023-01-20T04:35:52.071Z,16.60
2023-01-20T04:38:20.215Z,18.90
2023-01-20T04:40:48.327Z,22.23
2023-01-20T04:43:16.804Z,15.97
2023-01-20T04:45:44.947Z,16.67
2023-01-20T04:48:13.135Z,24.73
2023-01-20T04:50:42.520Z,19.93
2023-01-20T04:53:16.939Z,18.20
2023-01-20T04:55:45.112Z,23.50
2023-01-20T04:58:13.428Z,19.70
2023-01-20T05:00:43.624Z,21.30
2023-01-20T05:03:11.898Z,20.30
2023-01-20T05:05:40.295Z,21.73
2023-01-20T05:08:08.645Z,20.73
2023-01-20T05:10:38.219Z,22.17
2023-01-20T05:13:06.407Z,22.83
2023-01-20T05:15:34.527Z,20.40
2023-01-20T05:18:02.632Z,23.50
2023-01-20T05:20:30.730Z,21.83
2023-01-20T05:23:01.384Z,20.83
2023-01-20T05:25:30.062Z,23.93
2023-01-20T05:28:02.766Z,19.97
2023-01-20T05:30:30.936Z,23.37
2023-01-20T05:32:59.113Z,20.87
2023-01-20T05:35:27.413Z,23.20
2023-01-20T05:37:56.132Z,20.07
2023-01-20T05:40:24.291Z,22.63
2023-01-20T05:42:52.421Z,23.20
2023-01-20T05:45:21.961Z,22.30
2023-01-20T05:47:55.545Z,25.70
2023-01-20T05:50:23.722Z,20.07
2023-01-20T05:52:51.850Z,22.67
2023-01-20T05:55:22.374Z,24.37
2023-01-20T05:57:50.572Z,22.73
2023-01-20T06:00:21.759Z,24.27
2023-01-20T06:02:49.931Z,20.87
2023-01-20T06:05:18.481Z,23.83
2023-01-20T06:07:46.716Z,23.13
2023-01-20T06:10:15.117Z,23.87
2023-01-20T06:12:43.822Z,21.50
2023-01-20T06:15:13.117Z,22.23
2023-01-20T06:17:42.900Z,22.00
2023-01-20T06:20:12.720Z,19.27
2023-01-20T06:22:40.810Z,22.97
2023-01-20T06:25:10.004Z,21.93
2023-01-20T06:27:38.331Z,20.97
2023-01-20T06:30:07.985Z,23.23
2023-01-20T06:32:36.056Z,19.17
2023-01-20T06:35:06.447Z,21.43
2023-01-20T06:37:34.592Z,23.87
2023-01-20T06:40:02.667Z,23.10
2023-01-20T06:42:32.432Z,22.07
2023-01-20T06:45:00.563Z,23.90
2023-01-20T06:47:28.712Z,23.60
2023-01-20T06:49:56.774Z,23.07
2023-01-20T06:52:26.416Z,22.00
2023-01-20T06:54:54.622Z,22.80
2023-01-20T06:57:37.828Z,24.17
2023-01-20T07:00:07.693Z,19.30
2023-01-20T07:02:35.879Z,19.90
2023-01-20T07:05:08.001Z,26.00
2023-01-20T07:07:37.531Z,18.53
2023-01-20T07:10:07.026Z,20.03
2023-01-20T07:12:35.250Z,20.10
2023-01-20T07:15:03.370Z,21.67
2023-01-20T07:17:31.547Z,19.37
2023-01-20T07:19:59.659Z,20.77
2023-01-20T07:22:27.725Z,19.60
2023-01-20T07:24:57.178Z,21.63
2023-01-20T07:27:25.369Z,24.23
2023-01-20T07:29:53.532Z,21.53
2023-01-20T07:32:21.710Z,22.57
2023-01-20T07:34:50.349Z,25.43
2023-01-20T07:37:18.458Z,21.77
2023-01-20T07:39:46.568Z,23.00
2023-01-20T07:42:16.008Z,22.80
2023-01-20T07:44:44.205Z,26.93
2023-01-20T07:47:12.414Z,29.67
2023-01-20T07:49:40.530Z,30.80
2023-01-20T07:52:08.633Z,28.40
2023-01-20T07:54:36.784Z,22.27
2023-01-20T07:57:05.159Z,26.80
2023-01-20T07:59:34.625Z,22.90
2023-01-20T08:02:02.823Z,25.90
2023-01-20T08:04:31.044Z,26.50
2023-01-20T08:06:59.142Z,24.50
2023-01-20T08:09:27.511Z,26.63
2023-01-20T08:11:55.678Z,28.17
2023-01-20T08:14:23.928Z,30.53
2023-01-20T08:16:56.125Z,26.50
2023-01-20T08:19:24.567Z,30.07
2023-01-20T08:21:52.693Z,28.90
2023-01-20T08:24:20.793Z,32.97
2023-01-20T08:26:48.958Z,31.10
2023-01-20T08:29:17.042Z,32.83
2023-01-20T08:31:45.321Z,29.27
2023-01-20T08:34:16.091Z,31.37
2023-01-20T08:36:44.194Z,32.60
2023-01-20T08:39:18.036Z,29.60
2023-01-20T08:41:48.230Z,28.33
2023-01-20T08:44:18.591Z,31.70
2023-01-20T08:46:46.794Z,32.20
2023-01-20T08:49:18.383Z,31.10
2023-01-20T08:51:46.971Z,31.60
2023-01-20T08:54:16.165Z,33.93
2023-01-20T08:56:44.341Z,33.23
2023-01-20T08:59:12.974Z,36.37
2023-01-20T09:01:42.556Z,33.83
2023-01-20T09:04:10.880Z,34.17
2023-01-20T09:06:46.925Z,37.17
2023-01-20T09:09:18.683Z,33.77
2023-01-20T09:11:51.033Z,36.17
2023-01-20T09:14:20.408Z,36.63
2023-01-20T09:16:48.866Z,32.97
2023-01-20T09:19:17.627Z,39.27
2023-01-20T09:21:47.161Z,36.47
2023-01-20T09:24:15.530Z,46.47
2023-01-20T09:26:44.795Z,38.63
2023-01-20T09:29:15.566Z,40.33
2023-01-20T09:31:46.804Z,40.00
2023-01-20T09:34:23.071Z,32.97
2023-01-20T09:36:54.365Z,32.07
2023-01-20T09:39:40.715Z,36.73
2023-01-20T09:42:50.855Z,38.50
2023-01-20T09:45:28.696Z,35.40
2023-01-20T09:48:14.884Z,36.27
2023-01-20T09:51:09.213Z,37.57
2023-01-20T09:53:53.662Z,35.00
2023-01-20T09:56:26.995Z,33.77
2023-01-20T09:59:02.089Z,36.10
2023-01-20T10:01:40.087Z,31.07
2023-01-20T10:04:17.638Z,34.13
2023-01-20T10:06:50.880Z,34.40
2023-01-20T10:09:33.577Z,39.13
2023-01-20T10:12:10.302Z,33.20
2023-01-20T10:14:46.308Z,32.50
2023-01-20T10:17:22.731Z,36.20
2023-01-20T10:19:58.875Z,32.47
2023-01-20T10:22:35.652Z,30.00
2023-01-20T10:25:13.564Z,32.80
2023-01-20T10:27:51.369Z,29.93
2023-01-20T10:30:24.616Z,33.27
2023-01-20T10:33:01.774Z,31.03
2023-01-20T10:35:37.836Z,29.23
2023-01-20T10:38:09.999Z,26.47
2023-01-20T10:40:47.427Z,22.00
2023-01-20T10:43:18.451Z,23.57
2023-01-20T10:46:17.600Z,24.67
2023-01-20T10:49:25.768Z,23.13
2023-01-20T10:52:12.047Z,23.37
2023-01-20T10:54:53.868Z,25.80
2023-01-20T10:57:24.046Z,25.50
2023-01-20T10:59:56.730Z,24.37
2023-01-20T11:02:29.109Z,23.13
2023-01-20T11:05:01.490Z,25.23
2023-01-20T11:07:31.141Z,25.67
2023-01-20T11:10:02.076Z,25.23
2023-01-20T11:12:40.838Z,26.20
2023-01-20T11:15:19.739Z,27.00
2023-01-20T11:17:48.437Z,25.57
2023-01-20T11:20:23.230Z,23.10
2023-01-20T11:22:51.521Z,30.97
2023-01-20T11:25:27.747Z,24.40
2023-01-20T11:27:58.138Z,21.53
2023-01-20T11:30:31.997Z,22.13
2023-01-20T11:33:18.660Z,23.77
2023-01-20T11:36:01.031Z,21.57
2023-01-20T11:38:31.152Z,19.93
2023-01-20T11:40:59.829Z,22.57
2023-01-20T11:43:37.837Z,21.83
2023-01-20T11:46:22.490Z,23.27
2023-01-20T11:48:51.974Z,19.97
2023-01-20T11:51:25.257Z,22.10
2023-01-20T11:54:07.943Z,19.17
2023-01-20T11:56:42.585Z,21.30
2023-01-20T11:59:25.302Z,21.30
2023-01-20T12:02:02.464Z,22.70
2023-01-20T12:05:02.556Z,24.80
2023-01-20T12:07:38.399Z,21.20
2023-01-20T12:10:18.213Z,21.97
2023-01-20T12:12:55.498Z,21.23
2023-01-20T12:15:28.359Z,19.47
2023-01-20T12:18:01.669Z,21.33
2023-01-20T12:20:53.968Z,19.63
2023-01-20T12:23:39.156Z,18.37
2023-01-20T12:26:10.871Z,17.03
2023-01-20T12:28:49.060Z,16.37
2023-01-20T12:31:20.830Z,16.53
2023-01-20T12:33:52.410Z,15.40
2023-01-20T12:37:02.218Z,17.33
2023-01-20T12:39:49.004Z,16.53
2023-01-20T12:43:00.409Z,18.57
2023-01-20T12:45:48.032Z,20.93
2023-01-20T12:48:44.714Z,17.03
2023-01-20T12:51:39.713Z,14.63
2023-01-20T12:54:54.369Z,16.37
2023-01-20T12:57:53.029Z,13.70
2023-01-20T13:00:40.145Z,14.13
2023-01-20T13:03:55.258Z,11.93
2023-01-20T13:07:06.641Z,16.47
2023-01-20T13:09:56.323Z,14.57
2023-01-20T13:12:47.611Z,15.43
2023-01-20T13:15:29.072Z,15.20
2023-01-20T13:18:30.843Z,17.57
2023-01-20T13:21:00.312Z,16.37
2023-01-20T13:23:32.149Z,19.17
2023-01-20T13:26:02.772Z,16.87
2023-01-20T13:28:32.484Z,18.37
2023-01-20T13:31:22.570Z,18.00
2023-01-20T13:33:50.957Z,20.70
2023-01-20T13:36:23.420Z,16.87
2023-01-20T13:39:40.481Z,19.47
2023-01-20T13:42:44.435Z,18.73
2023-01-20T13:45:27.472Z,17.97
2023-01-20T13:48:03.312Z,17.20
2023-01-20T13:50:35.026Z,19.73
2023-01-20T13:53:14.892Z,21.57
2023-01-20T13:56:00.884Z,18.20
2023-01-20T13:58:32.477Z,18.83
2023-01-20T14:01:03.912Z,19.53
2023-01-20T14:03:35.145Z,24.33
2023-01-20T14:06:07.097Z,32.07
2023-01-20T14:08:43.922Z,17.87
2023-01-20T14:11:15.343Z,19.77
2023-01-20T14:13:52.259Z,18.67
2023-01-20T14:16:25.443Z,19.23
2023-01-20T14:18:55.332Z,18.17
2023-01-20T14:21:27.406Z,28.07
2023-01-20T14:23:57.409Z,78.07
2023-01-20T14:26:29.732Z,32.10
2023-01-20T14:29:00.872Z,26.67
2023-01-20T14:31:40.629Z,27.40
2023-01-20T14:34:27.891Z,22.77
2023-01-20T14:36:59.916Z,81.77
2023-01-20T14:39:31.784Z,40.70
2023-01-20T14:42:01.414Z,26.70
2023-01-20T14:44:33.588Z,22.40
2023-01-20T14:47:04.354Z,23.07
2023-01-20T14:49:39.314Z,24.53
2023-01-20T14:52:09.338Z,23.93
2023-01-20T14:54:44.947Z,19.90
2023-01-20T14:57:25.953Z,28.40
2023-01-20T15:00:22.120Z,22.37
2023-01-20T15:03:09.998Z,28.07
2023-01-20T15:05:41.735Z,18.47
2023-01-20T15:09:04.305Z,22.13
2023-01-20T15:11:36.411Z,17.93
2023-01-20T15:14:10.896Z,24.33
2023-01-20T15:17:00.578Z,29.73
2023-01-20T15:19:36.963Z,22.27
2023-01-20T15:22:21.606Z,24.97
2023-01-20T15:24:51.295Z,24.43
2023-01-20T15:27:33.173Z,21.67
2023-01-20T15:30:21.330Z,21.47
2023-01-20T15:32:51.396Z,18.23
2023-01-20T15:35:22.891Z,18.70
2023-01-20T15:37:55.149Z,18.63
2023-01-20T15:40:25.228Z,20.53
2023-01-20T15:42:56.875Z,20.67
2023-01-20T15:45:25.697Z,17.57
2023-01-20T15:47:53.932Z,17.60
2023-01-20T15:50:24.395Z,20.63
2023-01-20T15:52:52.561Z,20.40
2023-01-20T15:55:21.246Z,29.20
2023-01-20T15:57:54.243Z,35.77
2023-01-20T16:00:24.842Z,23.73
2023-01-20T16:02:53.148Z,24.87
2023-01-20T16:05:22.045Z,22.83
2023-01-20T16:07:50.326Z,23.63
2023-01-20T16:10:20.656Z,29.07
2023-01-20T16:12:49.337Z,26.93
2023-01-20T16:15:19.456Z,34.97
2023-01-20T16:17:47.811Z,32.13
2023-01-20T16:20:26.504Z,38.73
2023-01-20T16:22:54.747Z,52.37
2023-01-20T16:25:23.157Z,53.73
2023-01-20T16:27:51.451Z,43.80
2023-01-20T16:30:23.870Z,38.47
2023-01-20T16:32:52.131Z,41.97
2023-01-20T16:35:23.458Z,35.90
2023-01-20T16:37:52.305Z,52.87
2023-01-20T16:40:24.494Z,52.57
2023-01-20T16:42:56.803Z,48.53
2023-01-20T16:45:30.280Z,42.67
2023-01-20T16:47:58.464Z,41.10
2023-01-20T16:50:28.358Z,44.90
2023-01-20T16:52:57.181Z,45.37
2023-01-20T16:55:25.387Z,50.23
2023-01-20T16:57:54.084Z,49.53
2023-01-20T17:00:23.875Z,51.47
2023-01-20T17:02:54.288Z,48.40
2023-01-20T17:05:25.429Z,40.60
2023-01-20T17:07:56.876Z,36.63
2023-01-20T17:10:27.758Z,32.27
2023-01-20T17:12:57.312Z,34.63
2023-01-20T17:15:27.443Z,33.67
2023-01-20T17:18:00.236Z,30.97
2023-01-20T17:20:30.809Z,37.70
2023-01-20T17:22:59.047Z,48.70
2023-01-20T17:25:27.166Z,84.67
2023-01-20T17:27:55.303Z,54.30
2023-01-20T17:30:26.062Z,58.80
2023-01-20T17:32:56.119Z,57.90
2023-01-20T17:35:24.349Z,50.63
2023-01-20T17:37:52.532Z,51.77
2023-01-20T17:40:20.910Z,51.90
2023-01-20T17:42:49.002Z,54.50
2023-01-20T17:45:17.295Z,47.90
2023-01-20T17:47:45.450Z,56.17
2023-01-20T17:50:15.556Z,44.70
2023-01-20T17:52:43.991Z,64.93
2023-01-20T17:55:12.386Z,46.70
2023-01-20T17:57:40.578Z,37.77
2023-01-20T18:00:11.083Z,33.63
2023-01-20T18:02:39.455Z,37.07
2023-01-20T18:05:08.605Z,54.33
2023-01-20T18:07:39.246Z,47.93
2023-01-20T18:10:07.888Z,50.73
2023-01-20T18:12:36.111Z,55.40
2023-01-20T18:15:04.685Z,59.43
2023-01-20T18:17:34.389Z,38.20
2023-01-20T18:20:02.739Z,33.97
2023-01-20T18:22:31.068Z,38.43
2023-01-20T18:25:00.535Z,32.93
2023-01-20T18:27:28.726Z,41.80
2023-01-20T18:29:56.951Z,36.73
2023-01-20T18:32:25.720Z,33.90
2023-01-20T18:34:53.826Z,32.43
2023-01-20T18:37:21.915Z,41.47
2023-01-20T18:39:50.051Z,43.93
2023-01-20T18:42:19.599Z,30.73
2023-01-20T18:44:47.840Z,31.07
2023-01-20T18:47:16.011Z,30.97
2023-01-20T18:49:44.272Z,28.93
2023-01-20T18:52:12.436Z,30.77
2023-01-20T18:54:40.572Z,27.57
2023-01-20T18:57:09.209Z,33.57
2023-01-20T18:59:39.199Z,32.37
2023-01-20T19:02:07.619Z,37.70
2023-01-20T19:04:36.482Z,30.77
2023-01-20T19:07:05.845Z,32.57
2023-01-20T19:09:34.039Z,37.87
2023-01-20T19:12:02.347Z,36.30
2023-01-20T19:14:30.622Z,37.40
2023-01-20T19:17:00.163Z,41.30
2023-01-20T19:19:28.329Z,37.27
2023-01-20T19:21:56.558Z,39.53
2023-01-20T19:24:28.830Z,32.30
2023-01-20T19:26:57.947Z,31.37
2023-01-20T19:29:29.037Z,51.97
2023-01-20T19:31:58.961Z,50.07
2023-01-20T19:34:28.383Z,46.20
2023-01-20T19:36:57.456Z,48.63
2023-01-20T19:39:25.656Z,46.77
2023-01-20T19:41:54.367Z,44.53
2023-01-20T19:44:22.595Z,37.03
2023-01-20T19:46:50.756Z,37.53
2023-01-20T19:49:20.588Z,37.10
2023-01-20T19:51:48.774Z,49.37
2023-01-20T19:54:17.143Z,48.40
2023-01-20T19:56:45.912Z,42.03
2023-01-20T19:59:15.095Z,41.57
2023-01-20T20:01:43.550Z,30.87
2023-01-20T20:04:13.790Z,34.70
2023-01-20T20:06:48.457Z,26.60
2023-01-20T20:09:19.409Z,30.57
2023-01-20T20:11:48.088Z,21.40
2023-01-20T20:14:19.424Z,21.97
2023-01-20T20:16:48.428Z,27.07
2023-01-20T20:19:19.430Z,34.03
2023-01-20T20:21:51.478Z,41.50
2023-01-20T20:24:19.876Z,35.97
2023-01-20T20:26:48.601Z,35.17
2023-01-20T20:29:19.813Z,33.37
2023-01-20T20:31:48.176Z,30.63
2023-01-20T20:34:19.166Z,33.57
2023-01-20T20:36:48.744Z,28.87
2023-01-20T20:39:19.182Z,29.90
2023-01-20T20:41:48.326Z,33.60
2023-01-20T20:44:16.755Z,27.93
2023-01-20T20:46:45.202Z,37.13
2023-01-20T20:49:16.844Z,41.40
2023-01-20T20:51:47.188Z,46.13
2023-01-20T20:54:17.067Z,43.90
2023-01-20T20:56:46.018Z,42.93
2023-01-20T20:59:14.276Z,40.80
2023-01-20T21:01:42.552Z,50.47
2023-01-20T21:04:11.559Z,45.33
2023-01-20T21:06:39.831Z,53.53
2023-01-20T21:09:08.180Z,50.57
2023-01-20T21:11:38.782Z,45.30
2023-01-20T21:14:08.324Z,39.53
2023-01-20T21:16:37.825Z,49.67
2023-01-20T21:19:06.208Z,58.47
2023-01-20T21:21:34.580Z,47.77
2023-01-20T21:24:02.827Z,53.03
2023-01-20T21:26:31.178Z,54.90
2023-01-20T21:29:03.587Z,56.47
2023-01-20T21:31:32.443Z,60.77
2023-01-20T21:34:01.782Z,61.87
2023-01-20T21:36:31.697Z,84.70
2023-01-20T21:39:00.664Z,74.90
2023-01-20T21:41:28.915Z,66.97
2023-01-20T21:44:14.500Z,66.20
2023-01-20T21:46:44.077Z,87.50
2023-01-20T21:49:30.197Z,63.23
2023-01-20T21:52:16.164Z,68.10
2023-01-20T21:54:45.360Z,72.83
2023-01-20T21:57:14.397Z,65.67
2023-01-20T21:59:43.197Z,83.37
2023-01-20T22:02:14.111Z,63.33
2023-01-20T22:04:42.600Z,83.00
2023-01-20T22:07:11.293Z,81.07
2023-01-20T22:09:40.331Z,75.43
2023-01-20T22:12:09.459Z,68.43
2023-01-20T22:14:38.405Z,71.00
2023-01-20T22:17:07.900Z,63.00
2023-01-20T22:19:40.241Z,56.97
2023-01-20T22:22:09.168Z,55.23
2023-01-20T22:24:37.395Z,57.03
2023-01-20T22:27:05.584Z,57.47
2023-01-20T22:29:33.730Z,67.97
2023-01-20T22:32:03.979Z,51.93
2023-01-20T22:34:32.645Z,56.60
2023-01-20T22:37:02.332Z,67.07
2023-01-20T22:39:30.481Z,61.20
2023-01-20T22:41:58.798Z,70.70
2023-01-20T22:44:27.017Z,53.53
2023-01-20T22:46:55.308Z,55.77
2023-01-20T22:49:23.480Z,57.10
2023-01-20T22:51:54.556Z,56.30
2023-01-20T22:54:24.975Z,48.27
2023-01-20T22:56:53.246Z,44.90
2023-01-20T22:59:21.387Z,42.60
2023-01-20T23:01:49.788Z,43.60
2023-01-20T23:04:18.169Z,49.33
2023-01-20T23:06:46.346Z,42.10
2023-01-20T23:09:15.685Z,43.20
2023-01-20T23:11:45.373Z,49.23
2023-01-20T23:14:13.999Z,47.13
2023-01-20T23:16:43.534Z,46.87
2023-01-20T23:19:12.645Z,44.37
2023-01-20T23:21:40.844Z,52.43
2023-01-20T23:24:09.487Z,44.63
2023-01-20T23:26:37.708Z,42.60
2023-01-20T23:29:07.291Z,48.30
2023-01-20T23:31:35.749Z,47.33
2023-01-20T23:34:04.249Z,52.93
2023-01-20T23:36:32.500Z,49.07
2023-01-20T23:39:00.669Z,51.63
2023-01-20T23:41:28.883Z,58.60
2023-01-20T23:43:56.969Z,59.40
2023-01-20T23:46:26.531Z,55.70
2023-01-20T23:48:54.773Z,48.57
2023-01-20T23:51:23.071Z,55.30
2023-01-20T23:53:51.301Z,47.87
2023-01-20T23:56:22.183Z,50.90
2023-01-20T23:58:50.916Z,57.97
